sensor_id;sensor_type;location;lat;lon;timestamp;P1;durP1;ratioP1;P2;durP2;ratioP2
54849;SDS011;47660;51.334;12.396;2023-05-10T00:00:11;2.80;;;1.90;;
54849;SDS011;47660;51.334;12.396;2023-05-10T00:02:37;3.53;;;2.25;;
54849;SDS011;47660;51.334;12.396;2023-05-10T00:05:03;4.13;;;1.83;;
54849;SDS011;47660;51.334;12.396;2023-05-10T00:07:30;2.90;;;2.10;;
54849;SDS011;47660;51.334;12.396;2023-05-10T00:10:00;4.00;;;2.00;;
54849;SDS011;47660;51.334;12.396;2023-05-10T00:12:25;3.95;;;2.22;;
54849;SDS011;47660;51.334;12.396;2023-05-10T00:14:53;3.47;;;2.15;;
54849;SDS011;47660;51.334;12.396;2023-05-10T00:17:19;2.92;;;2.10;;
54849;SDS011;47660;51.334;12.396;2023-05-10T00:19:44;3.65;;;2.22;;
54849;SDS011;47660;51.334;12.396;2023-05-10T00:22:09;3.17;;;2.15;;
54849;SDS011;47660;51.334;12.396;2023-05-10T00:24:35;3.38;;;2.22;;
54849;SDS011;47660;51.334;12.396;2023-05-10T00:27:00;3.63;;;2.10;;
54849;SDS011;47660;51.334;12.396;2023-05-10T00:29:26;4.65;;;2.35;;
54849;SDS011;47660;51.334;12.396;2023-05-10T00:31:55;4.40;;;2.05;;
54849;SDS011;47660;51.334;12.396;2023-05-10T00:34:21;3.78;;;2.00;;
54849;SDS011;47660;51.334;12.396;2023-05-10T00:36:46;5.30;;;2.53;;
54849;SDS011;47660;51.334;12.396;2023-05-10T00:39:16;2.90;;;2.15;;
54849;SDS011;47660;51.334;12.396;2023-05-10T00:41:42;4.18;;;2.17;;
54849;SDS011;47660;51.334;12.396;2023-05-10T00:44:12;3.17;;;2.03;;
54849;SDS011;47660;51.334;12.396;2023-05-10T00:46:37;4.80;;;2.25;;
54849;SDS011;47660;51.334;12.396;2023-05-10T00:49:03;3.90;;;2.10;;
54849;SDS011;47660;51.334;12.396;2023-05-10T00:51:29;3.80;;;2.47;;
54849;SDS011;47660;51.334;12.396;2023-05-10T00:53:56;4.13;;;2.30;;
54849;SDS011;47660;51.334;12.396;2023-05-10T00:56:24;3.72;;;2.28;;
54849;SDS011;47660;51.334;12.396;2023-05-10T00:58:50;7.53;;;2.90;;
54849;SDS011;47660;51.334;12.396;2023-05-10T01:01:16;3.28;;;2.47;;
54849;SDS011;47660;51.334;12.396;2023-05-10T01:03:46;4.40;;;2.13;;
54849;SDS011;47660;51.334;12.396;2023-05-10T01:06:14;3.30;;;2.25;;
54849;SDS011;47660;51.334;12.396;2023-05-10T01:08:40;3.55;;;2.08;;
54849;SDS011;47660;51.334;12.396;2023-05-10T01:11:07;3.80;;;2.30;;
54849;SDS011;47660;51.334;12.396;2023-05-10T01:13:36;8.85;;;2.33;;
54849;SDS011;47660;51.334;12.396;2023-05-10T01:16:03;6.75;;;2.55;;
54849;SDS011;47660;51.334;12.396;2023-05-10T01:18:30;3.13;;;1.90;;
54849;SDS011;47660;51.334;12.396;2023-05-10T01:21:23;4.10;;;1.92;;
54849;SDS011;47660;51.334;12.396;2023-05-10T01:35:10;3.92;;;2.28;;
54849;SDS011;47660;51.334;12.396;2023-05-10T01:37:52;3.05;;;1.83;;
54849;SDS011;47660;51.334;12.396;2023-05-10T01:40:26;4.60;;;2.25;;
54849;SDS011;47660;51.334;12.396;2023-05-10T01:43:11;3.08;;;2.10;;
54849;SDS011;47660;51.334;12.396;2023-05-10T01:45:50;2.83;;;2.00;;
54849;SDS011;47660;51.334;12.396;2023-05-10T01:48:40;4.05;;;2.03;;
54849;SDS011;47660;51.334;12.396;2023-05-10T01:51:13;3.38;;;1.98;;
54849;SDS011;47660;51.334;12.396;2023-05-10T01:53:44;4.15;;;1.95;;
54849;SDS011;47660;51.334;12.396;2023-05-10T01:56:13;4.03;;;1.92;;
54849;SDS011;47660;51.334;12.396;2023-05-10T01:58:43;5.97;;;2.60;;
54849;SDS011;47660;51.334;12.396;2023-05-10T02:01:11;3.78;;;2.25;;
54849;SDS011;47660;51.334;12.396;2023-05-10T02:03:37;3.83;;;2.22;;
54849;SDS011;47660;51.334;12.396;2023-05-10T02:06:05;4.38;;;2.42;;
54849;SDS011;47660;51.334;12.396;2023-05-10T02:08:34;2.30;;;1.77;;
54849;SDS011;47660;51.334;12.396;2023-05-10T02:11:02;3.42;;;2.40;;
54849;SDS011;47660;51.334;12.396;2023-05-10T02:13:29;3.13;;;1.80;;
54849;SDS011;47660;51.334;12.396;2023-05-10T02:16:01;4.88;;;2.35;;
54849;SDS011;47660;51.334;12.396;2023-05-10T02:18:31;3.75;;;1.88;;
54849;SDS011;47660;51.334;12.396;2023-05-10T02:21:02;2.83;;;2.15;;
54849;SDS011;47660;51.334;12.396;2023-05-10T02:23:28;4.10;;;2.20;;
54849;SDS011;47660;51.334;12.396;2023-05-10T02:25:57;3.67;;;2.03;;
54849;SDS011;47660;51.334;12.396;2023-05-10T02:28:25;3.60;;;2.00;;
54849;SDS011;47660;51.334;12.396;2023-05-10T02:30:54;3.20;;;1.75;;
54849;SDS011;47660;51.334;12.396;2023-05-10T02:33:23;2.63;;;1.95;;
54849;SDS011;47660;51.334;12.396;2023-05-10T02:35:50;7.13;;;2.30;;
54849;SDS011;47660;51.334;12.396;2023-05-10T02:38:16;3.33;;;1.77;;
54849;SDS011;47660;51.334;12.396;2023-05-10T02:40:45;3.72;;;2.22;;
54849;SDS011;47660;51.334;12.396;2023-05-10T02:43:12;3.70;;;1.92;;
54849;SDS011;47660;51.334;12.396;2023-05-10T02:45:43;5.10;;;2.20;;
54849;SDS011;47660;51.334;12.396;2023-05-10T02:48:16;3.05;;;1.70;;
54849;SDS011;47660;51.334;12.396;2023-05-10T02:50:43;4.25;;;2.28;;
54849;SDS011;47660;51.334;12.396;2023-05-10T02:53:10;2.60;;;2.00;;
54849;SDS011;47660;51.334;12.396;2023-05-10T02:55:49;3.25;;;2.30;;
54849;SDS011;47660;51.334;12.396;2023-05-10T02:58:19;8.90;;;2.08;;
54849;SDS011;47660;51.334;12.396;2023-05-10T03:00:46;5.07;;;2.40;;
54849;SDS011;47660;51.334;12.396;2023-05-10T03:03:16;2.53;;;1.83;;
54849;SDS011;47660;51.334;12.396;2023-05-10T03:05:44;3.42;;;1.88;;
54849;SDS011;47660;51.334;12.396;2023-05-10T03:08:09;3.15;;;1.85;;
54849;SDS011;47660;51.334;12.396;2023-05-10T03:10:38;4.53;;;2.72;;
54849;SDS011;47660;51.334;12.396;2023-05-10T03:16:22;2.75;;;2.00;;
54849;SDS011;47660;51.334;12.396;2023-05-10T03:18:42;3.35;;;1.88;;
54849;SDS011;47660;51.334;12.396;2023-05-10T03:21:13;5.22;;;2.45;;
54849;SDS011;47660;51.334;12.396;2023-05-10T03:23:46;3.40;;;2.05;;
54849;SDS011;47660;51.334;12.396;2023-05-10T03:26:23;3.47;;;1.80;;
54849;SDS011;47660;51.334;12.396;2023-05-10T03:28:55;4.22;;;2.40;;
54849;SDS011;47660;51.334;12.396;2023-05-10T03:31:23;4.70;;;2.40;;
54849;SDS011;47660;51.334;12.396;2023-05-10T03:33:52;5.57;;;2.20;;
54849;SDS011;47660;51.334;12.396;2023-05-10T03:36:18;4.63;;;2.50;;
54849;SDS011;47660;51.334;12.396;2023-05-10T03:38:46;3.78;;;2.55;;
54849;SDS011;47660;51.334;12.396;2023-05-10T03:41:12;5.05;;;2.42;;
54849;SDS011;47660;51.334;12.396;2023-05-10T03:43:37;3.38;;;2.15;;
54849;SDS011;47660;51.334;12.396;2023-05-10T03:46:03;4.18;;;2.25;;
54849;SDS011;47660;51.334;12.396;2023-05-10T03:48:29;5.90;;;2.45;;
54849;SDS011;47660;51.334;12.396;2023-05-10T03:50:55;4.53;;;2.25;;
54849;SDS011;47660;51.334;12.396;2023-05-10T03:53:21;3.67;;;2.55;;
54849;SDS011;47660;51.334;12.396;2023-05-10T03:55:47;3.08;;;1.98;;
54849;SDS011;47660;51.334;12.396;2023-05-10T03:58:15;6.93;;;2.47;;
54849;SDS011;47660;51.334;12.396;2023-05-10T04:00:40;6.68;;;2.10;;
54849;SDS011;47660;51.334;12.396;2023-05-10T04:03:11;4.63;;;2.20;;
54849;SDS011;47660;51.334;12.396;2023-05-10T04:05:37;3.60;;;1.83;;
54849;SDS011;47660;51.334;12.396;2023-05-10T04:08:05;3.20;;;2.25;;
54849;SDS011;47660;51.334;12.396;2023-05-10T04:10:31;3.40;;;2.20;;
54849;SDS011;47660;51.334;12.396;2023-05-10T04:12:59;3.45;;;2.30;;
54849;SDS011;47660;51.334;12.396;2023-05-10T04:15:25;3.20;;;1.83;;
54849;SDS011;47660;51.334;12.396;2023-05-10T04:17:52;3.38;;;2.00;;
54849;SDS011;47660;51.334;12.396;2023-05-10T04:20:18;3.72;;;2.20;;
54849;SDS011;47660;51.334;12.396;2023-05-10T04:22:46;5.43;;;2.40;;
54849;SDS011;47660;51.334;12.396;2023-05-10T04:25:11;2.67;;;1.90;;
54849;SDS011;47660;51.334;12.396;2023-05-10T04:27:39;2.92;;;2.05;;
54849;SDS011;47660;51.334;12.396;2023-05-10T04:30:05;2.97;;;1.98;;
54849;SDS011;47660;51.334;12.396;2023-05-10T04:32:34;5.70;;;2.15;;
54849;SDS011;47660;51.334;12.396;2023-05-10T04:34:59;5.20;;;2.63;;
54849;SDS011;47660;51.334;12.396;2023-05-10T04:37:25;3.72;;;2.65;;
54849;SDS011;47660;51.334;12.396;2023-05-10T04:39:53;5.88;;;2.08;;
54849;SDS011;47660;51.334;12.396;2023-05-10T04:42:21;4.65;;;2.33;;
54849;SDS011;47660;51.334;12.396;2023-05-10T04:44:46;5.07;;;2.42;;
54849;SDS011;47660;51.334;12.396;2023-05-10T04:47:14;5.20;;;2.67;;
54849;SDS011;47660;51.334;12.396;2023-05-10T04:49:41;4.28;;;2.70;;
54849;SDS011;47660;51.334;12.396;2023-05-10T04:52:06;4.53;;;2.70;;
54849;SDS011;47660;51.334;12.396;2023-05-10T04:54:34;2.90;;;2.30;;
54849;SDS011;47660;51.334;12.396;2023-05-10T04:56:59;5.43;;;2.70;;
54849;SDS011;47660;51.334;12.396;2023-05-10T04:59:25;3.70;;;2.28;;
54849;SDS011;47660;51.334;12.396;2023-05-10T05:01:50;3.40;;;2.08;;
54849;SDS011;47660;51.334;12.396;2023-05-10T05:04:16;3.58;;;2.30;;
54849;SDS011;47660;51.334;12.396;2023-05-10T05:06:41;6.97;;;2.35;;
54849;SDS011;47660;51.334;12.396;2023-05-10T05:09:09;2.72;;;2.00;;
54849;SDS011;47660;51.334;12.396;2023-05-10T05:11:37;4.90;;;2.20;;
54849;SDS011;47660;51.334;12.396;2023-05-10T05:14:03;5.78;;;2.30;;
54849;SDS011;47660;51.334;12.396;2023-05-10T05:16:34;3.75;;;2.20;;
54849;SDS011;47660;51.334;12.396;2023-05-10T05:19:01;5.05;;;2.30;;
54849;SDS011;47660;51.334;12.396;2023-05-10T05:21:27;3.13;;;2.17;;
54849;SDS011;47660;51.334;12.396;2023-05-10T05:23:53;3.70;;;2.20;;
54849;SDS011;47660;51.334;12.396;2023-05-10T05:26:18;6.22;;;3.00;;
54849;SDS011;47660;51.334;12.396;2023-05-10T05:28:46;3.45;;;2.35;;
54849;SDS011;47660;51.334;12.396;2023-05-10T05:31:13;3.72;;;2.20;;
54849;SDS011;47660;51.334;12.396;2023-05-10T05:33:38;2.80;;;2.00;;
54849;SDS011;47660;51.334;12.396;2023-05-10T05:36:04;2.90;;;2.10;;
54849;SDS011;47660;51.334;12.396;2023-05-10T05:38:30;2.38;;;1.67;;
54849;SDS011;47660;51.334;12.396;2023-05-10T05:40:56;2.92;;;2.00;;
54849;SDS011;47660;51.334;12.396;2023-05-10T05:43:21;5.13;;;1.73;;
54849;SDS011;47660;51.334;12.396;2023-05-10T05:45:47;4.00;;;2.03;;
54849;SDS011;47660;51.334;12.396;2023-05-10T05:48:12;3.65;;;1.98;;
54849;SDS011;47660;51.334;12.396;2023-05-10T05:50:38;4.72;;;1.90;;
54849;SDS011;47660;51.334;12.396;2023-05-10T05:53:03;3.83;;;2.40;;
54849;SDS011;47660;51.334;12.396;2023-05-10T05:55:29;4.00;;;2.08;;
54849;SDS011;47660;51.334;12.396;2023-05-10T05:57:59;4.07;;;2.13;;
54849;SDS011;47660;51.334;12.396;2023-05-10T06:00:24;3.58;;;1.65;;
54849;SDS011;47660;51.334;12.396;2023-05-10T06:02:52;3.53;;;2.28;;
54849;SDS011;47660;51.334;12.396;2023-05-10T06:05:20;3.38;;;2.03;;
54849;SDS011;47660;51.334;12.396;2023-05-10T06:07:46;5.15;;;2.25;;
54849;SDS011;47660;51.334;12.396;2023-05-10T06:10:11;3.35;;;2.03;;
54849;SDS011;47660;51.334;12.396;2023-05-10T06:12:36;3.92;;;2.40;;
54849;SDS011;47660;51.334;12.396;2023-05-10T06:15:04;5.45;;;2.15;;
54849;SDS011;47660;51.334;12.396;2023-05-10T06:17:30;3.42;;;2.03;;
54849;SDS011;47660;51.334;12.396;2023-05-10T06:19:56;3.42;;;2.00;;
54849;SDS011;47660;51.334;12.396;2023-05-10T06:22:21;3.47;;;1.65;;
54849;SDS011;47660;51.334;12.396;2023-05-10T06:24:47;4.78;;;2.17;;
54849;SDS011;47660;51.334;12.396;2023-05-10T06:27:13;8.85;;;2.03;;
54849;SDS011;47660;51.334;12.396;2023-05-10T06:29:39;3.72;;;2.15;;
54849;SDS011;47660;51.334;12.396;2023-05-10T06:32:06;4.10;;;2.20;;
54849;SDS011;47660;51.334;12.396;2023-05-10T06:34:32;4.07;;;2.00;;
54849;SDS011;47660;51.334;12.396;2023-05-10T06:36:59;4.47;;;2.13;;
54849;SDS011;47660;51.334;12.396;2023-05-10T06:39:25;3.50;;;2.30;;
54849;SDS011;47660;51.334;12.396;2023-05-10T06:41:54;4.68;;;2.20;;
54849;SDS011;47660;51.334;12.396;2023-05-10T06:44:19;3.08;;;1.88;;
54849;SDS011;47660;51.334;12.396;2023-05-10T06:46:47;3.15;;;2.10;;
54849;SDS011;47660;51.334;12.396;2023-05-10T06:49:13;5.80;;;2.13;;
54849;SDS011;47660;51.334;12.396;2023-05-10T06:51:38;3.50;;;2.10;;
54849;SDS011;47660;51.334;12.396;2023-05-10T06:54:07;3.63;;;2.08;;
54849;SDS011;47660;51.334;12.396;2023-05-10T06:56:32;5.63;;;2.08;;
54849;SDS011;47660;51.334;12.396;2023-05-10T06:58:58;3.33;;;1.70;;
54849;SDS011;47660;51.334;12.396;2023-05-10T07:01:23;4.35;;;2.25;;
54849;SDS011;47660;51.334;12.396;2023-05-10T07:03:49;5.40;;;2.28;;
54849;SDS011;47660;51.334;12.396;2023-05-10T07:06:14;2.78;;;2.10;;
54849;SDS011;47660;51.334;12.396;2023-05-10T07:08:39;2.67;;;2.03;;
54849;SDS011;47660;51.334;12.396;2023-05-10T07:11:06;3.88;;;1.90;;
54849;SDS011;47660;51.334;12.396;2023-05-10T07:13:35;2.92;;;1.98;;
54849;SDS011;47660;51.334;12.396;2023-05-10T07:16:06;3.20;;;2.13;;
54849;SDS011;47660;51.334;12.396;2023-05-10T07:18:34;4.30;;;2.10;;
54849;SDS011;47660;51.334;12.396;2023-05-10T07:21:00;3.47;;;1.98;;
54849;SDS011;47660;51.334;12.396;2023-05-10T07:23:25;4.25;;;2.58;;
54849;SDS011;47660;51.334;12.396;2023-05-10T07:25:51;5.78;;;2.28;;
54849;SDS011;47660;51.334;12.396;2023-05-10T07:28:19;2.55;;;1.92;;
54849;SDS011;47660;51.334;12.396;2023-05-10T07:30:47;4.32;;;2.42;;
54849;SDS011;47660;51.334;12.396;2023-05-10T07:33:13;3.75;;;2.13;;
54849;SDS011;47660;51.334;12.396;2023-05-10T07:35:42;3.55;;;2.00;;
54849;SDS011;47660;51.334;12.396;2023-05-10T07:38:08;3.95;;;2.00;;
54849;SDS011;47660;51.334;12.396;2023-05-10T07:40:33;3.80;;;1.95;;
54849;SDS011;47660;51.334;12.396;2023-05-10T07:43:01;4.43;;;1.92;;
54849;SDS011;47660;51.334;12.396;2023-05-10T07:45:27;3.10;;;1.73;;
54849;SDS011;47660;51.334;12.396;2023-05-10T07:47:53;2.58;;;1.90;;
54849;SDS011;47660;51.334;12.396;2023-05-10T07:50:19;3.58;;;1.85;;
54849;SDS011;47660;51.334;12.396;2023-05-10T07:52:46;1.55;;;1.27;;
54849;SDS011;47660;51.334;12.396;2023-05-10T07:55:11;2.60;;;2.08;;
54849;SDS011;47660;51.334;12.396;2023-05-10T07:57:39;4.05;;;2.30;;
54849;SDS011;47660;51.334;12.396;2023-05-10T08:00:07;2.75;;;1.85;;
54849;SDS011;47660;51.334;12.396;2023-05-10T08:02:34;4.22;;;1.58;;
54849;SDS011;47660;51.334;12.396;2023-05-10T08:05:00;2.75;;;2.10;;
54849;SDS011;47660;51.334;12.396;2023-05-10T08:07:26;3.53;;;2.00;;
54849;SDS011;47660;51.334;12.396;2023-05-10T08:09:51;2.55;;;1.80;;
54849;SDS011;47660;51.334;12.396;2023-05-10T08:12:19;3.20;;;2.13;;
54849;SDS011;47660;51.334;12.396;2023-05-10T08:14:49;6.35;;;1.80;;
54849;SDS011;47660;51.334;12.396;2023-05-10T08:17:14;5.55;;;1.60;;
54849;SDS011;47660;51.334;12.396;2023-05-10T08:19:40;4.10;;;2.05;;
54849;SDS011;47660;51.334;12.396;2023-05-10T08:22:05;6.78;;;3.33;;
54849;SDS011;47660;51.334;12.396;2023-05-10T08:24:33;4.65;;;2.10;;
54849;SDS011;47660;51.334;12.396;2023-05-10T08:27:03;3.50;;;2.20;;
54849;SDS011;47660;51.334;12.396;2023-05-10T08:29:28;3.22;;;2.15;;
54849;SDS011;47660;51.334;12.396;2023-05-10T08:31:54;3.22;;;2.17;;
54849;SDS011;47660;51.334;12.396;2023-05-10T08:34:19;6.22;;;2.08;;
54849;SDS011;47660;51.334;12.396;2023-05-10T08:36:45;3.38;;;1.65;;
54849;SDS011;47660;51.334;12.396;2023-05-10T08:39:12;4.30;;;1.52;;
54849;SDS011;47660;51.334;12.396;2023-05-10T08:41:39;3.28;;;1.95;;
54849;SDS011;47660;51.334;12.396;2023-05-10T08:44:09;3.00;;;2.15;;
54849;SDS011;47660;51.334;12.396;2023-05-10T08:46:35;2.70;;;2.00;;
54849;SDS011;47660;51.334;12.396;2023-05-10T08:49:04;3.70;;;2.30;;
54849;SDS011;47660;51.334;12.396;2023-05-10T08:51:34;3.53;;;2.17;;
54849;SDS011;47660;51.334;12.396;2023-05-10T08:54:02;3.75;;;2.47;;
54849;SDS011;47660;51.334;12.396;2023-05-10T08:56:31;3.10;;;1.90;;
54849;SDS011;47660;51.334;12.396;2023-05-10T08:58:59;3.08;;;2.40;;
54849;SDS011;47660;51.334;12.396;2023-05-10T09:01:25;4.03;;;2.10;;
54849;SDS011;47660;51.334;12.396;2023-05-10T09:03:51;6.00;;;2.45;;
54849;SDS011;47660;51.334;12.396;2023-05-10T09:06:17;3.58;;;2.30;;
54849;SDS011;47660;51.334;12.396;2023-05-10T09:08:43;4.07;;;2.47;;
54849;SDS011;47660;51.334;12.396;2023-05-10T09:11:12;3.00;;;2.08;;
54849;SDS011;47660;51.334;12.396;2023-05-10T09:13:38;2.92;;;2.08;;
54849;SDS011;47660;51.334;12.396;2023-05-10T09:16:08;4.47;;;3.20;;
54849;SDS011;47660;51.334;12.396;2023-05-10T09:18:34;6.93;;;2.33;;
54849;SDS011;47660;51.334;12.396;2023-05-10T09:20:59;3.83;;;2.47;;
54849;SDS011;47660;51.334;12.396;2023-05-10T09:23:25;5.88;;;2.90;;
54849;SDS011;47660;51.334;12.396;2023-05-10T09:26:03;5.40;;;2.88;;
54849;SDS011;47660;51.334;12.396;2023-05-10T09:28:35;4.05;;;2.50;;
54849;SDS011;47660;51.334;12.396;2023-05-10T09:31:18;5.03;;;2.75;;
54849;SDS011;47660;51.334;12.396;2023-05-10T09:33:46;5.28;;;2.90;;
54849;SDS011;47660;51.334;12.396;2023-05-10T09:36:17;5.38;;;3.33;;
54849;SDS011;47660;51.334;12.396;2023-05-10T09:38:49;4.15;;;2.97;;
54849;SDS011;47660;51.334;12.396;2023-05-10T09:41:19;7.50;;;3.55;;
54849;SDS011;47660;51.334;12.396;2023-05-10T09:43:46;5.45;;;3.35;;
54849;SDS011;47660;51.334;12.396;2023-05-10T09:46:12;6.45;;;3.40;;
54849;SDS011;47660;51.334;12.396;2023-05-10T09:48:42;11.88;;;5.68;;
54849;SDS011;47660;51.334;12.396;2023-05-10T09:51:18;6.40;;;3.72;;
54849;SDS011;47660;51.334;12.396;2023-05-10T09:53:47;12.95;;;4.88;;
54849;SDS011;47660;51.334;12.396;2023-05-10T09:56:32;9.82;;;6.03;;
54849;SDS011;47660;51.334;12.396;2023-05-10T09:59:03;6.13;;;3.80;;
54849;SDS011;47660;51.334;12.396;2023-05-10T10:01:29;7.35;;;3.28;;
54849;SDS011;47660;51.334;12.396;2023-05-10T10:03:56;7.55;;;3.67;;
54849;SDS011;47660;51.334;12.396;2023-05-10T10:06:24;6.35;;;3.35;;
54849;SDS011;47660;51.334;12.396;2023-05-10T10:08:50;6.35;;;3.45;;
54849;SDS011;47660;51.334;12.396;2023-05-10T10:11:16;7.47;;;3.78;;
54849;SDS011;47660;51.334;12.396;2023-05-10T10:13:42;7.18;;;3.25;;
54849;SDS011;47660;51.334;12.396;2023-05-10T10:16:10;5.35;;;3.10;;
54849;SDS011;47660;51.334;12.396;2023-05-10T10:18:37;6.05;;;3.30;;
54849;SDS011;47660;51.334;12.396;2023-05-10T10:21:06;6.55;;;3.88;;
54849;SDS011;47660;51.334;12.396;2023-05-10T10:23:34;4.95;;;3.45;;
54849;SDS011;47660;51.334;12.396;2023-05-10T10:26:00;7.40;;;3.65;;
54849;SDS011;47660;51.334;12.396;2023-05-10T10:28:39;7.43;;;4.20;;
54849;SDS011;47660;51.334;12.396;2023-05-10T10:36:24;6.65;;;3.20;;
54849;SDS011;47660;51.334;12.396;2023-05-10T10:44:22;5.15;;;3.13;;
54849;SDS011;47660;51.334;12.396;2023-05-10T10:47:08;9.45;;;3.33;;
54849;SDS011;47660;51.334;12.396;2023-05-10T10:52:15;4.78;;;2.97;;
54849;SDS011;47660;51.334;12.396;2023-05-10T10:54:41;5.82;;;3.55;;
54849;SDS011;47660;51.334;12.396;2023-05-10T10:57:12;7.63;;;4.03;;
54849;SDS011;47660;51.334;12.396;2023-05-10T10:59:42;6.88;;;3.25;;
54849;SDS011;47660;51.334;12.396;2023-05-10T11:02:08;7.10;;;3.90;;
54849;SDS011;47660;51.334;12.396;2023-05-10T11:04:41;4.38;;;3.22;;
54849;SDS011;47660;51.334;12.396;2023-05-10T11:07:17;6.07;;;3.72;;
54849;SDS011;47660;51.334;12.396;2023-05-10T11:09:45;8.15;;;3.85;;
54849;SDS011;47660;51.334;12.396;2023-05-10T11:12:14;5.30;;;3.35;;
54849;SDS011;47660;51.334;12.396;2023-05-10T11:14:40;6.30;;;3.58;;
54849;SDS011;47660;51.334;12.396;2023-05-10T11:17:24;7.90;;;4.22;;
54849;SDS011;47660;51.334;12.396;2023-05-10T11:20:07;7.75;;;3.67;;
54849;SDS011;47660;51.334;12.396;2023-05-10T11:22:53;7.15;;;3.38;;
54849;SDS011;47660;51.334;12.396;2023-05-10T11:25:19;7.82;;;3.67;;
54849;SDS011;47660;51.334;12.396;2023-05-10T11:27:53;5.25;;;3.22;;
54849;SDS011;47660;51.334;12.396;2023-05-10T11:30:27;6.05;;;3.63;;
54849;SDS011;47660;51.334;12.396;2023-05-10T11:32:53;7.95;;;4.00;;
54849;SDS011;47660;51.334;12.396;2023-05-10T11:35:18;6.53;;;3.75;;
54849;SDS011;47660;51.334;12.396;2023-05-10T11:37:44;6.63;;;3.72;;
54849;SDS011;47660;51.334;12.396;2023-05-10T11:40:18;5.25;;;3.80;;
54849;SDS011;47660;51.334;12.396;2023-05-10T11:42:44;5.80;;;3.45;;
54849;SDS011;47660;51.334;12.396;2023-05-10T11:45:10;5.72;;;3.72;;
54849;SDS011;47660;51.334;12.396;2023-05-10T11:47:39;6.72;;;4.28;;
54849;SDS011;47660;51.334;12.396;2023-05-10T11:50:06;9.10;;;4.05;;
54849;SDS011;47660;51.334;12.396;2023-05-10T11:52:35;6.60;;;4.07;;
54849;SDS011;47660;51.334;12.396;2023-05-10T11:55:08;8.05;;;3.80;;
54849;SDS011;47660;51.334;12.396;2023-05-10T11:57:34;8.57;;;4.18;;
54849;SDS011;47660;51.334;12.396;2023-05-10T12:00:03;6.68;;;4.40;;
54849;SDS011;47660;51.334;12.396;2023-05-10T12:02:32;5.78;;;3.58;;
54849;SDS011;47660;51.334;12.396;2023-05-10T12:04:58;7.15;;;3.95;;
54849;SDS011;47660;51.334;12.396;2023-05-10T12:07:31;7.78;;;4.00;;
54849;SDS011;47660;51.334;12.396;2023-05-10T12:10:12;6.85;;;3.92;;
54849;SDS011;47660;51.334;12.396;2023-05-10T12:12:52;6.75;;;3.95;;
54849;SDS011;47660;51.334;12.396;2023-05-10T12:15:24;6.90;;;3.88;;
54849;SDS011;47660;51.334;12.396;2023-05-10T12:17:52;6.53;;;3.90;;
54849;SDS011;47660;51.334;12.396;2023-05-10T12:20:20;6.25;;;4.50;;
54849;SDS011;47660;51.334;12.396;2023-05-10T12:22:53;5.85;;;3.65;;
54849;SDS011;47660;51.334;12.396;2023-05-10T12:25:33;7.15;;;3.50;;
54849;SDS011;47660;51.334;12.396;2023-05-10T12:28:00;6.32;;;3.58;;
54849;SDS011;47660;51.334;12.396;2023-05-10T12:30:34;4.70;;;3.65;;
54849;SDS011;47660;51.334;12.396;2023-05-10T12:33:08;6.13;;;3.63;;
54849;SDS011;47660;51.334;12.396;2023-05-10T12:35:50;6.40;;;4.32;;
54849;SDS011;47660;51.334;12.396;2023-05-10T12:38:30;7.18;;;4.03;;
54849;SDS011;47660;51.334;12.396;2023-05-10T12:41:12;5.45;;;3.88;;
54849;SDS011;47660;51.334;12.396;2023-05-10T12:43:40;6.15;;;4.03;;
54849;SDS011;47660;51.334;12.396;2023-05-10T12:46:12;5.72;;;4.07;;
54849;SDS011;47660;51.334;12.396;2023-05-10T12:48:40;7.50;;;4.82;;
54849;SDS011;47660;51.334;12.396;2023-05-10T12:51:07;5.28;;;3.75;;
54849;SDS011;47660;51.334;12.396;2023-05-10T12:53:45;7.43;;;4.05;;
54849;SDS011;47660;51.334;12.396;2023-05-10T12:56:17;6.85;;;3.95;;
54849;SDS011;47660;51.334;12.396;2023-05-10T12:58:43;7.97;;;4.10;;
54849;SDS011;47660;51.334;12.396;2023-05-10T13:01:13;6.63;;;3.72;;
54849;SDS011;47660;51.334;12.396;2023-05-10T13:03:44;6.65;;;4.13;;
54849;SDS011;47660;51.334;12.396;2023-05-10T13:06:09;9.45;;;4.88;;
54849;SDS011;47660;51.334;12.396;2023-05-10T13:08:38;6.30;;;3.25;;
54849;SDS011;47660;51.334;12.396;2023-05-10T13:11:07;6.55;;;3.45;;
54849;SDS011;47660;51.334;12.396;2023-05-10T13:13:33;6.00;;;3.45;;
54849;SDS011;47660;51.334;12.396;2023-05-10T13:16:03;4.45;;;3.17;;
54849;SDS011;47660;51.334;12.396;2023-05-10T13:18:29;3.67;;;2.97;;
54849;SDS011;47660;51.334;12.396;2023-05-10T13:20:54;3.67;;;2.67;;
54849;SDS011;47660;51.334;12.396;2023-05-10T13:23:20;4.15;;;2.92;;
54849;SDS011;47660;51.334;12.396;2023-05-10T13:25:46;5.75;;;3.00;;
54849;SDS011;47660;51.334;12.396;2023-05-10T13:28:11;3.95;;;2.70;;
54849;SDS011;47660;51.334;12.396;2023-05-10T13:30:39;4.45;;;3.20;;
54849;SDS011;47660;51.334;12.396;2023-05-10T13:33:05;4.30;;;2.85;;
54849;SDS011;47660;51.334;12.396;2023-05-10T13:35:34;5.05;;;2.95;;
54849;SDS011;47660;51.334;12.396;2023-05-10T13:38:02;3.78;;;3.00;;
54849;SDS011;47660;51.334;12.396;2023-05-10T13:40:28;3.78;;;2.60;;
54849;SDS011;47660;51.334;12.396;2023-05-10T13:42:53;4.43;;;2.67;;
54849;SDS011;47660;51.334;12.396;2023-05-10T13:45:19;5.18;;;3.15;;
54849;SDS011;47660;51.334;12.396;2023-05-10T13:47:44;3.72;;;2.45;;
54849;SDS011;47660;51.334;12.396;2023-05-10T13:50:10;3.88;;;2.60;;
54849;SDS011;47660;51.334;12.396;2023-05-10T13:52:35;4.10;;;2.60;;
54849;SDS011;47660;51.334;12.396;2023-05-10T13:55:00;4.60;;;2.70;;
54849;SDS011;47660;51.334;12.396;2023-05-10T13:57:26;4.53;;;2.65;;
54849;SDS011;47660;51.334;12.396;2023-05-10T13:59:51;3.42;;;2.10;;
54849;SDS011;47660;51.334;12.396;2023-05-10T14:02:17;2.65;;;1.73;;
54849;SDS011;47660;51.334;12.396;2023-05-10T14:04:42;2.55;;;1.88;;
54849;SDS011;47660;51.334;12.396;2023-05-10T14:07:08;2.55;;;2.13;;
54849;SDS011;47660;51.334;12.396;2023-05-10T14:09:33;2.92;;;2.00;;
54849;SDS011;47660;51.334;12.396;2023-05-10T14:11:59;2.72;;;2.13;;
54849;SDS011;47660;51.334;12.396;2023-05-10T14:14:24;3.35;;;2.00;;
54849;SDS011;47660;51.334;12.396;2023-05-10T14:16:50;3.08;;;2.10;;
54849;SDS011;47660;51.334;12.396;2023-05-10T14:19:15;2.58;;;2.10;;
54849;SDS011;47660;51.334;12.396;2023-05-10T14:21:40;3.08;;;2.33;;
54849;SDS011;47660;51.334;12.396;2023-05-10T14:24:06;3.40;;;2.30;;
54849;SDS011;47660;51.334;12.396;2023-05-10T14:26:32;3.28;;;2.28;;
54849;SDS011;47660;51.334;12.396;2023-05-10T14:28:59;3.90;;;2.80;;
54849;SDS011;47660;51.334;12.396;2023-05-10T14:31:24;3.88;;;2.50;;
54849;SDS011;47660;51.334;12.396;2023-05-10T14:33:52;3.17;;;2.50;;
54849;SDS011;47660;51.334;12.396;2023-05-10T14:36:18;5.65;;;3.80;;
54849;SDS011;47660;51.334;12.396;2023-05-10T14:38:43;4.80;;;2.92;;
54849;SDS011;47660;51.334;12.396;2023-05-10T14:41:09;3.60;;;2.75;;
54849;SDS011;47660;51.334;12.396;2023-05-10T14:43:38;3.30;;;2.83;;
54849;SDS011;47660;51.334;12.396;2023-05-10T14:46:04;4.55;;;3.17;;
54849;SDS011;47660;51.334;12.396;2023-05-10T14:48:33;4.75;;;2.67;;
54849;SDS011;47660;51.334;12.396;2023-05-10T14:50:59;3.90;;;2.75;;
54849;SDS011;47660;51.334;12.396;2023-05-10T14:53:27;3.95;;;2.47;;
54849;SDS011;47660;51.334;12.396;2023-05-10T14:55:52;4.32;;;2.80;;
54849;SDS011;47660;51.334;12.396;2023-05-10T14:58:17;5.90;;;3.25;;
54849;SDS011;47660;51.334;12.396;2023-05-10T15:00:43;3.83;;;2.25;;
54849;SDS011;47660;51.334;12.396;2023-05-10T15:03:08;6.13;;;2.72;;
54849;SDS011;47660;51.334;12.396;2023-05-10T15:05:34;3.00;;;1.83;;